createdAt,value
2023-05-22T04:09:45.818Z,67.11
2023-05-22T04:14:45.776Z,66.30
2023-05-22T04:19:44.706Z,66.30
2023-05-22T04:24:43.674Z,66.10
2023-05-22T04:29:42.635Z,65.87
2023-05-22T04:34:41.555Z,65.16
2023-05-22T04:39:40.494Z,65.53
2023-05-22T04:44:39.462Z,64.22
2023-05-22T04:49:38.496Z,63.71
2023-05-22T04:54:37.351Z,64.09
2023-05-22T04:59:36.339Z,64.19
2023-05-22T05:04:35.320Z,64.49
2023-05-22T05:09:34.984Z,63.85
2023-05-22T05:14:33.118Z,63.45
2023-05-22T05:19:33.195Z,63.35
2023-05-22T05:24:31.039Z,63.93
2023-05-22T05:29:30.061Z,63.93
2023-05-22T05:34:28.931Z,63.59
2023-05-22T05:39:27.955Z,62.38
2023-05-22T05:44:26.861Z,62.88
2023-05-22T05:49:25.875Z,62.59
2023-05-22T05:54:24.730Z,63.56
2023-05-22T05:59:23.736Z,62.96
2023-05-22T06:04:22.615Z,62.76
2023-05-22T06:09:21.704Z,63.67
2023-05-22T06:14:20.573Z,62.96
2023-05-22T06:19:19.542Z,63.84
2023-05-22T06:24:18.424Z,63.60
2023-05-22T06:29:17.481Z,63.10
2023-05-22T06:34:16.379Z,62.57
2023-05-22T06:39:15.295Z,63.17
2023-05-22T06:44:14.223Z,64.48
2023-05-22T06:49:13.157Z,63.24
2023-05-22T06:54:12.117Z,62.10
2023-05-22T06:59:11.096Z,61.87
2023-05-22T07:04:09.973Z,62.24
2023-05-22T07:09:09.024Z,60.24
2023-05-22T07:14:07.930Z,59.80
2023-05-22T07:19:06.926Z,60.08
2023-05-22T07:24:05.793Z,59.52
2023-05-22T07:29:04.851Z,58.09
2023-05-22T07:34:03.720Z,57.66
2023-05-22T07:39:02.659Z,56.43
2023-05-22T07:44:01.596Z,55.00
2023-05-22T07:49:00.556Z,56.00
2023-05-22T07:58:58.484Z,55.87
2023-05-22T08:03:57.564Z,54.57
2023-05-22T08:08:56.384Z,56.65
2023-05-22T08:13:55.619Z,54.32
2023-05-22T08:18:54.244Z,54.42
2023-05-22T08:23:53.397Z,53.69
2023-05-22T08:28:52.114Z,53.39
2023-05-22T08:33:51.127Z,54.67
2023-05-22T08:38:50.067Z,53.14
2023-05-22T08:43:48.981Z,53.02
2023-05-22T08:48:47.945Z,51.52
2023-05-22T08:53:46.840Z,52.59
2023-05-22T08:58:45.837Z,51.20
2023-05-22T09:03:44.804Z,50.90
2023-05-22T09:08:43.714Z,50.47
2023-05-22T09:13:42.704Z,48.05
2023-05-22T09:18:41.607Z,49.83
2023-05-22T09:23:40.597Z,48.31
2023-05-22T09:28:39.502Z,46.73
2023-05-22T09:33:38.452Z,47.63
2023-05-22T09:38:37.439Z,47.63
2023-05-22T09:43:36.355Z,47.51
2023-05-22T09:48:35.341Z,47.81
2023-05-22T09:53:34.258Z,47.51
2023-05-22T09:58:33.272Z,47.09
2023-05-22T10:03:32.151Z,47.69
2023-05-22T10:08:31.168Z,45.37
2023-05-22T10:13:30.230Z,44.48
2023-05-22T10:18:28.988Z,44.98
2023-05-22T10:23:28.109Z,44.56
2023-05-22T10:28:27.204Z,45.21
2023-05-22T10:33:25.835Z,44.29
2023-05-22T10:38:24.811Z,43.80
2023-05-22T10:43:23.822Z,43.30
2023-05-22T10:48:22.753Z,43.02
2023-05-22T10:53:21.608Z,42.85
2023-05-22T10:58:20.621Z,44.74
2023-05-22T11:03:19.756Z,42.93
2023-05-22T11:08:19.536Z,43.10
2023-05-22T11:13:17.409Z,42.69
2023-05-22T11:18:16.498Z,42.66
2023-05-22T11:23:15.317Z,41.85
2023-05-22T11:28:14.281Z,41.33
2023-05-22T11:33:13.346Z,40.72
2023-05-22T11:38:12.149Z,40.55
2023-05-22T11:43:11.217Z,39.75
2023-05-22T11:48:10.092Z,38.46
2023-05-22T11:53:09.214Z,39.36
2023-05-22T11:58:08.055Z,39.95
2023-05-22T12:03:06.964Z,38.78
2023-05-22T12:08:05.882Z,39.07
2023-05-22T12:13:04.871Z,38.30
2023-05-22T12:18:03.857Z,37.01
2023-05-22T12:23:03.069Z,37.88
2023-05-22T12:28:01.614Z,36.99
2023-05-22T12:33:00.678Z,38.58
2023-05-22T12:37:59.560Z,38.58
2023-05-22T12:42:58.558Z,37.37
2023-05-22T12:47:57.545Z,36.30
2023-05-22T12:52:56.524Z,36.50
2023-05-22T12:57:55.337Z,36.68
2023-05-22T13:02:54.660Z,37.17
2023-05-22T13:07:53.279Z,35.57
2023-05-22T13:12:52.194Z,35.95
2023-05-22T13:17:51.388Z,35.57
2023-05-22T13:22:50.088Z,36.07
2023-05-22T13:27:49.120Z,35.16
2023-05-22T13:32:48.060Z,35.65
2023-05-22T13:37:46.915Z,33.87
2023-05-22T13:42:45.926Z,34.76
2023-05-22T13:47:44.984Z,33.57
2023-05-22T13:52:43.769Z,33.69
2023-05-22T13:57:42.742Z,34.56
2023-05-22T14:02:41.741Z,33.57
2023-05-22T14:07:40.655Z,33.37
2023-05-22T14:12:39.567Z,33.19
2023-05-22T14:17:38.570Z,32.48
2023-05-22T14:22:48.315Z,33.29
2023-05-22T14:27:36.404Z,33.11
2023-05-22T14:32:35.421Z,34.30
2023-05-22T14:37:34.291Z,34.61
2023-05-22T14:42:33.264Z,34.31
2023-05-22T14:47:32.297Z,35.39
2023-05-22T14:52:31.297Z,34.89
2023-05-22T14:57:30.243Z,34.78
2023-05-22T15:02:29.343Z,32.60
2023-05-22T15:07:35.811Z,33.39
2023-05-22T15:12:27.042Z,33.00
2023-05-22T15:17:26.005Z,31.02
2023-05-22T15:22:25.046Z,32.12
2023-05-22T15:27:23.849Z,32.31
2023-05-22T15:32:22.836Z,31.14
2023-05-22T15:37:21.800Z,32.43
2023-05-22T15:42:20.699Z,32.31
2023-05-22T15:47:19.626Z,31.34
2023-05-22T15:52:18.630Z,32.14
2023-05-22T15:57:17.519Z,33.72
2023-05-22T16:02:16.481Z,32.93
2023-05-22T16:07:15.394Z,32.73
2023-05-22T16:12:14.338Z,32.73
2023-05-22T16:17:13.269Z,33.14
2023-05-22T16:22:12.340Z,34.15
2023-05-22T16:27:11.257Z,33.95
2023-05-22T16:32:10.188Z,33.87
2023-05-22T16:37:09.106Z,33.76
2023-05-22T16:42:08.072Z,32.67
2023-05-22T16:47:07.068Z,33.37
2023-05-22T16:52:06.010Z,33.17
2023-05-22T16:57:04.935Z,34.27
2023-05-22T17:02:03.835Z,34.08
2023-05-22T17:07:02.807Z,33.88
2023-05-22T17:12:01.764Z,33.00
2023-05-22T17:17:00.691Z,33.02
2023-05-22T17:21:59.717Z,33.81
2023-05-22T17:26:58.561Z,33.32
2023-05-22T17:31:57.550Z,33.23
2023-05-22T17:36:56.852Z,33.04
2023-05-22T17:41:55.440Z,32.95
2023-05-22T17:46:54.374Z,32.86
2023-05-22T17:51:53.365Z,33.15
2023-05-22T17:56:52.271Z,33.67
2023-05-22T18:01:51.362Z,33.18
2023-05-22T18:06:50.306Z,33.48
2023-05-22T18:11:49.168Z,33.68
2023-05-22T18:16:48.069Z,33.80
2023-05-22T18:21:47.000Z,33.80
2023-05-22T18:26:45.934Z,34.51
2023-05-22T18:31:44.953Z,34.11
2023-05-22T18:36:43.843Z,34.33
2023-05-22T18:41:42.797Z,35.23
2023-05-22T18:46:41.884Z,35.44
2023-05-22T18:51:40.676Z,35.85
2023-05-22T18:56:39.629Z,37.64
2023-05-22T19:01:38.633Z,37.77
2023-05-22T19:06:37.509Z,39.67
2023-05-22T19:11:36.521Z,40.81
2023-05-22T19:16:35.641Z,42.33
2023-05-22T19:21:34.589Z,43.38
2023-05-22T19:26:33.356Z,43.77
2023-05-22T19:31:32.351Z,43.60
2023-05-22T19:36:31.216Z,45.00
2023-05-22T19:41:30.216Z,45.72
2023-05-22T19:52:22.608Z,47.97
2023-05-22T19:57:22.572Z,46.80
2023-05-22T20:02:21.590Z,46.81
2023-05-22T20:07:20.477Z,48.12
2023-05-22T20:12:19.433Z,50.26
2023-05-22T20:17:18.396Z,49.48
2023-05-22T20:22:17.404Z,50.31
2023-05-22T20:27:16.365Z,52.31
2023-05-22T20:32:15.266Z,51.41
2023-05-22T20:37:14.228Z,50.53
2023-05-22T20:42:13.191Z,51.26
2023-05-22T20:47:12.060Z,52.17
2023-05-22T20:52:11.262Z,52.49
2023-05-22T20:57:10.049Z,54.61
2023-05-22T21:02:09.050Z,55.64
2023-05-22T21:07:07.904Z,55.24
2023-05-22T21:12:06.821Z,56.57
2023-05-22T21:17:05.820Z,56.68
2023-05-22T21:22:04.748Z,55.66
2023-05-22T21:27:03.634Z,55.29
2023-05-22T21:32:02.592Z,56.10
2023-05-22T21:37:01.582Z,54.68
2023-05-22T21:42:00.506Z,54.58
2023-05-22T21:46:59.558Z,54.38
2023-05-22T21:51:58.441Z,54.31
2023-05-22T21:56:57.365Z,57.34
2023-05-22T22:01:56.549Z,57.76
2023-05-22T22:06:55.302Z,58.27
2023-05-22T22:11:54.238Z,57.06
2023-05-22T22:16:53.249Z,58.50
2023-05-22T22:21:52.236Z,60.62
2023-05-22T22:26:51.045Z,61.16
2023-05-22T22:31:49.996Z,60.75
2023-05-22T22:36:48.940Z,60.68
2023-05-22T22:41:47.904Z,61.90
2023-05-22T22:46:46.823Z,60.58
2023-05-22T22:51:45.749Z,61.72
2023-05-22T22:56:44.766Z,62.63
2023-05-22T23:01:43.766Z,62.93
2023-05-22T23:06:42.641Z,62.66
2023-05-22T23:11:41.570Z,62.35
2023-05-22T23:16:40.564Z,63.20
2023-05-22T23:21:39.429Z,65.32
2023-05-22T23:26:38.374Z,65.45
2023-05-22T23:31:37.441Z,64.64
2023-05-22T23:36:36.350Z,64.14
2023-05-22T23:41:35.235Z,64.95
2023-05-22T23:46:34.208Z,66.50
2023-05-22T23:51:33.130Z,67.14
2023-05-22T23:56:32.066Z,67.14
